Time;durP1;ratioP1;P1;durP2;ratioP2;P2;SDS_P1;SDS_P2;PMS_P1;PMS_P2;Temp;Humidity;BMP_temperature;BMP_pressure;BME280_temperature;BME280_humidity;BME280_pressure;Samples;Min_cycle;Max_cycle;Signal;HPM_P1;HPM_P2
2023/05/24 00:02:12;;;;;;;0.40;0.40;;;;;;;;;;5096757;28;20192;-87
2023/05/24 00:04:39;;;;;;;0.40;0.40;;;;;;;;;;5099513;28;20178;-87
2023/05/24 00:07:05;;;;;;;0.40;0.40;;;;;;;;;;5106706;28;20647;-88
2023/05/24 00:09:31;;;;;;;0.43;0.43;;;;;;;;;;5107082;28;20229;-90
2023/05/24 00:11:58;;;;;;;0.50;0.50;;;;;;;;;;5119838;28;20172;-90
2023/05/24 00:14:24;;;;;;;0.60;0.60;;;;;;;;;;5119923;28;20170;-88
2023/05/24 00:16:50;;;;;;;0.50;0.50;;;;;;;;;;5110569;28;20186;-87
2023/05/24 00:19:17;;;;;;;0.60;0.60;;;;;;;;;;5095901;28;20185;-88
2023/05/24 00:21:46;;;;;;;0.60;0.60;;;;;;;;;;5095310;28;20257;-89
2023/05/24 00:24:12;;;;;;;0.53;0.53;;;;;;;;;;5094734;28;20667;-88
2023/05/24 00:26:38;;;;;;;0.40;0.40;;;;;;;;;;5094682;28;20293;-88
2023/05/24 00:29:04;;;;;;;0.50;0.50;;;;;;;;;;5094828;28;20174;-88
2023/05/24 00:31:31;;;;;;;0.50;0.50;;;;;;;;;;5094762;28;20281;-87
2023/05/24 00:33:57;;;;;;;0.40;0.40;;;;;;;;;;5095253;28;20173;-87
2023/05/24 00:36:23;;;;;;;0.40;0.40;;;;;;;;;;5095292;28;20306;-87
2023/05/24 00:38:49;;;;;;;0.40;0.40;;;;;;;;;;5116448;28;20196;-91
2023/05/24 00:41:16;;;;;;;0.40;0.40;;;;;;;;;;5118507;28;20186;-88
2023/05/24 00:43:43;;;;;;;0.50;0.50;;;;;;;;;;5118922;28;20173;-89
2023/05/24 00:46:09;;;;;;;0.40;0.40;;;;;;;;;;5118912;28;20173;-89
2023/05/24 00:48:35;;;;;;;0.40;0.40;;;;;;;;;;5118776;28;20185;-88
2023/05/24 00:51:01;;;;;;;0.40;0.40;;;;;;;;;;5112996;28;20233;-87
2023/05/24 00:53:27;;;;;;;0.50;0.50;;;;;;;;;;5103905;28;20169;-88
2023/05/24 00:55:53;;;;;;;0.50;0.50;;;;;;;;;;5094985;28;20264;-88
2023/05/24 00:58:19;;;;;;;0.47;0.47;;;;;;;;;;5094539;28;20178;-87
2023/05/24 01:00:48;;;;;;;0.40;0.40;;;;;;;;;;5094089;28;20220;-89
2023/05/24 01:03:14;;;;;;;0.40;0.40;;;;;;;;;;5094176;28;20193;-88
2023/05/24 01:05:40;;;;;;;0.53;0.53;;;;;;;;;;5093809;28;20173;-88
2023/05/24 01:08:06;;;;;;;0.40;0.40;;;;;;;;;;5093948;28;20181;-88
2023/05/24 01:10:52;;;;;;;0.37;0.37;;;;;;;;;;5093115;28;20221;-87
2023/05/24 01:13:21;;;;;;;0.60;0.60;;;;;;;;;;5093376;28;20169;-88
2023/05/24 01:15:53;;;;;;;0.50;0.50;;;;;;;;;;5093494;28;20173;-87
2023/05/24 01:18:24;;;;;;;0.70;0.70;;;;;;;;;;5093468;28;20178;-87
2023/05/24 01:20:57;;;;;;;0.40;0.40;;;;;;;;;;5094174;28;20197;-89
2023/05/24 01:23:41;;;;;;;0.50;0.50;;;;;;;;;;5093479;28;20222;-88
2023/05/24 01:26:08;;;;;;;0.50;0.50;;;;;;;;;;5093744;28;20226;-88
2023/05/24 01:28:34;;;;;;;0.50;0.50;;;;;;;;;;5093334;28;20553;-88
2023/05/24 01:31:01;;;;;;;0.43;0.43;;;;;;;;;;5092976;28;20213;-87
2023/05/24 01:33:27;;;;;;;0.40;0.40;;;;;;;;;;5093316;28;20253;-88
2023/05/24 01:35:53;;;;;;;0.40;0.40;;;;;;;;;;5093068;28;20270;-87
2023/05/24 01:38:19;;;;;;;0.50;0.50;;;;;;;;;;5093278;28;20608;-88
2023/05/24 01:40:47;;;;;;;0.43;0.43;;;;;;;;;;5092406;28;20204;-87
2023/05/24 01:43:26;;;;;;;0.40;0.40;;;;;;;;;;5093036;28;20173;-88
2023/05/24 01:45:57;;;;;;;0.50;0.50;;;;;;;;;;5092963;28;20591;-88
2023/05/24 01:48:35;;;;;;;0.40;0.40;;;;;;;;;;5093473;28;20170;-87
2023/05/24 01:51:05;;;;;;;0.40;0.40;;;;;;;;;;5092112;28;20767;-88
2023/05/24 01:53:35;;;;;;;0.50;0.50;;;;;;;;;;5092778;28;20182;-87
2023/05/24 01:56:04;;;;;;;0.30;0.30;;;;;;;;;;5092926;28;20174;-88
2023/05/24 01:58:31;;;;;;;0.43;0.43;;;;;;;;;;5092572;28;20174;-86
2023/05/24 02:00:57;;;;;;;0.40;0.40;;;;;;;;;;5091755;28;20197;-87
2023/05/24 02:03:23;;;;;;;0.40;0.40;;;;;;;;;;5092971;28;20203;-87
2023/05/24 02:05:49;;;;;;;0.40;0.40;;;;;;;;;;5092718;28;20173;-87
2023/05/24 02:08:15;;;;;;;0.50;0.50;;;;;;;;;;5092484;28;20192;-88
2023/05/24 02:10:41;;;;;;;0.50;0.50;;;;;;;;;;5091779;28;20232;-87
2023/05/24 02:13:08;;;;;;;0.50;0.50;;;;;;;;;;5092681;28;20618;-86
2023/05/24 02:15:37;;;;;;;0.50;0.50;;;;;;;;;;5092635;28;20178;-87
2023/05/24 02:18:06;;;;;;;0.50;0.50;;;;;;;;;;5092579;28;20180;-87
2023/05/24 02:20:35;;;;;;;0.30;0.30;;;;;;;;;;5092056;28;20680;-87
2023/05/24 02:23:01;;;;;;;0.50;0.50;;;;;;;;;;5092524;28;20209;-87
2023/05/24 02:25:27;;;;;;;0.47;0.47;;;;;;;;;;5092362;28;20628;-88
2023/05/24 02:27:53;;;;;;;0.50;0.50;;;;;;;;;;5092591;28;20178;-88
2023/05/24 02:30:19;;;;;;;0.40;0.40;;;;;;;;;;5091949;28;20598;-87
2023/05/24 02:32:45;;;;;;;0.60;0.60;;;;;;;;;;5092640;28;20189;-87
2023/05/24 02:35:11;;;;;;;0.60;0.60;;;;;;;;;;5092655;28;20204;-88
2023/05/24 02:37:38;;;;;;;0.40;0.40;;;;;;;;;;5093069;28;20181;-87
2023/05/24 02:40:04;;;;;;;0.50;0.50;;;;;;;;;;5094000;28;20208;-88
2023/05/24 02:42:30;;;;;;;0.40;0.40;;;;;;;;;;5100599;28;20181;-87
2023/05/24 02:44:56;;;;;;;0.40;0.40;;;;;;;;;;5102165;28;20174;-87
2023/05/24 02:47:22;;;;;;;0.40;0.40;;;;;;;;;;5095445;28;20522;-88
2023/05/24 02:49:48;;;;;;;0.50;0.50;;;;;;;;;;5091977;28;20228;-88
2023/05/24 02:52:15;;;;;;;0.37;0.37;;;;;;;;;;5092931;28;20227;-88
2023/05/24 02:54:40;;;;;;;0.47;0.47;;;;;;;;;;5092733;28;20184;-88
2023/05/24 02:57:06;;;;;;;0.40;0.40;;;;;;;;;;5093025;28;20529;-87
2023/05/24 02:59:33;;;;;;;0.50;0.50;;;;;;;;;;5093239;28;20202;-89
2023/05/24 03:01:59;;;;;;;0.40;0.40;;;;;;;;;;5094223;28;20177;-87
2023/05/24 03:04:25;;;;;;;0.50;0.50;;;;;;;;;;5094526;28;20159;-88
2023/05/24 03:06:52;;;;;;;0.53;0.53;;;;;;;;;;5094818;28;20185;-88
2023/05/24 03:09:18;;;;;;;0.53;0.53;;;;;;;;;;5095058;28;20202;-88
2023/05/24 03:11:44;;;;;;;0.50;0.50;;;;;;;;;;5105478;28;20254;-89
2023/05/24 03:14:10;;;;;;;0.30;0.30;;;;;;;;;;5120482;28;20193;-88
2023/05/24 03:16:36;;;;;;;0.40;0.40;;;;;;;;;;5120586;28;20162;-87
2023/05/24 03:19:03;;;;;;;0.50;0.50;;;;;;;;;;5119032;28;20189;-88
2023/05/24 03:21:29;;;;;;;0.47;0.47;;;;;;;;;;5103985;28;20194;-87
2023/05/24 03:23:55;;;;;;;0.50;0.50;;;;;;;;;;5096457;28;20181;-87
2023/05/24 03:26:21;;;;;;;0.50;0.50;;;;;;;;;;5096076;28;20190;-88
2023/05/24 03:28:49;;;;;;;0.53;0.53;;;;;;;;;;5095721;28;20166;-87
2023/05/24 03:31:15;;;;;;;0.53;0.53;;;;;;;;;;5095125;28;20621;-86
2023/05/24 03:33:41;;;;;;;0.50;0.50;;;;;;;;;;5095261;28;20227;-87
2023/05/24 03:36:07;;;;;;;0.50;0.50;;;;;;;;;;5094064;28;20200;-88
2023/05/24 03:38:33;;;;;;;0.47;0.47;;;;;;;;;;5095207;28;20249;-88
2023/05/24 03:40:59;;;;;;;0.47;0.47;;;;;;;;;;5095008;28;20197;-87
2023/05/24 03:43:25;;;;;;;0.40;0.40;;;;;;;;;;5095321;28;20174;-89
2023/05/24 03:45:51;;;;;;;0.50;0.50;;;;;;;;;;5097974;28;20178;-88
2023/05/24 03:48:19;;;;;;;0.43;0.43;;;;;;;;;;5099703;28;20170;-87
2023/05/24 03:50:45;;;;;;;0.53;0.53;;;;;;;;;;5096436;28;20628;-87
2023/05/24 03:53:11;;;;;;;0.53;0.53;;;;;;;;;;5095590;28;20547;-87
2023/05/24 03:55:37;;;;;;;0.50;0.50;;;;;;;;;;5095027;28;20170;-87
2023/05/24 03:58:03;;;;;;;0.40;0.40;;;;;;;;;;5095391;28;20243;-87
2023/05/24 04:00:29;;;;;;;0.50;0.50;;;;;;;;;;5094952;28;20196;-89
2023/05/24 04:02:55;;;;;;;0.50;0.50;;;;;;;;;;5095178;28;20181;-87
2023/05/24 04:05:25;;;;;;;0.40;0.40;;;;;;;;;;5095389;28;20357;-88
2023/05/24 04:07:52;;;;;;;0.40;0.40;;;;;;;;;;5095241;28;20636;-89
2023/05/24 04:10:18;;;;;;;0.43;0.43;;;;;;;;;;5094703;28;20225;-89
2023/05/24 04:12:44;;;;;;;0.50;0.50;;;;;;;;;;5095055;28;20185;-88
2023/05/24 04:15:14;;;;;;;0.40;0.40;;;;;;;;;;5095010;28;20197;-88
2023/05/24 04:17:41;;;;;;;0.40;0.40;;;;;;;;;;5095336;28;20181;-88
2023/05/24 04:20:08;;;;;;;0.50;0.50;;;;;;;;;;5094805;28;20225;-88
2023/05/24 04:22:35;;;;;;;0.50;0.50;;;;;;;;;;5096287;28;20174;-88
2023/05/24 04:25:01;;;;;;;0.40;0.40;;;;;;;;;;5097459;28;20174;-88
2023/05/24 04:27:29;;;;;;;0.47;0.47;;;;;;;;;;5108271;28;20193;-88
2023/05/24 04:29:55;;;;;;;0.50;0.50;;;;;;;;;;5103649;28;20198;-88
2023/05/24 04:32:22;;;;;;;0.50;0.50;;;;;;;;;;5099515;28;20230;-89
2023/05/24 04:34:49;;;;;;;0.33;0.33;;;;;;;;;;5083976;28;20187;-89
2023/05/24 04:37:16;;;;;;;0.50;0.50;;;;;;;;;;5074659;28;20265;-88
2023/05/24 04:39:43;;;;;;;0.30;0.30;;;;;;;;;;5073905;28;20195;-89
2023/05/24 04:42:09;;;;;;;0.50;0.50;;;;;;;;;;5074275;28;20224;-88
2023/05/24 04:44:35;;;;;;;0.50;0.50;;;;;;;;;;5096206;28;20171;-88
2023/05/24 04:47:02;;;;;;;0.40;0.40;;;;;;;;;;5098266;28;20173;-88
2023/05/24 04:49:28;;;;;;;0.43;0.43;;;;;;;;;;5097675;28;20218;-88
2023/05/24 04:51:54;;;;;;;0.40;0.40;;;;;;;;;;5098535;28;20163;-88
2023/05/24 04:54:20;;;;;;;0.50;0.50;;;;;;;;;;5098429;28;20171;-86
2023/05/24 04:56:46;;;;;;;0.40;0.40;;;;;;;;;;5098441;28;20175;-87
2023/05/24 04:59:12;;;;;;;0.40;0.40;;;;;;;;;;5098731;28;20163;-88
2023/05/24 05:01:38;;;;;;;0.60;0.60;;;;;;;;;;5098685;28;20198;-87
2023/05/24 05:04:05;;;;;;;0.40;0.40;;;;;;;;;;5099085;28;20190;-89
2023/05/24 05:06:33;;;;;;;0.37;0.37;;;;;;;;;;5099393;28;20175;-87
2023/05/24 05:08:59;;;;;;;0.40;0.40;;;;;;;;;;5098894;28;20182;-88
2023/05/24 05:11:26;;;;;;;0.40;0.40;;;;;;;;;;5098635;28;20201;-87
2023/05/24 05:13:53;;;;;;;0.50;0.50;;;;;;;;;;5098715;28;20201;-87
2023/05/24 05:16:19;;;;;;;0.40;0.40;;;;;;;;;;5099044;28;20198;-87
2023/05/24 05:18:45;;;;;;;0.60;0.60;;;;;;;;;;5098079;28;20171;-87
2023/05/24 05:21:11;;;;;;;0.40;0.40;;;;;;;;;;5090753;28;20309;-86
2023/05/24 05:23:38;;;;;;;0.50;0.50;;;;;;;;;;5079322;28;20196;-87
2023/05/24 05:26:06;;;;;;;0.47;0.47;;;;;;;;;;5076440;28;20190;-86
2023/05/24 05:28:32;;;;;;;0.40;0.40;;;;;;;;;;5073788;28;20174;-86
2023/05/24 05:30:58;;;;;;;0.40;0.40;;;;;;;;;;5073253;28;20222;-86
2023/05/24 05:33:24;;;;;;;0.40;0.40;;;;;;;;;;5078439;28;20234;-90
2023/05/24 05:35:50;;;;;;;0.40;0.40;;;;;;;;;;5085080;28;20190;-90
2023/05/24 05:38:16;;;;;;;0.47;0.47;;;;;;;;;;5081145;28;20178;-88
2023/05/24 05:40:42;;;;;;;0.50;0.50;;;;;;;;;;5078840;28;20205;-88
2023/05/24 05:43:08;;;;;;;0.50;0.50;;;;;;;;;;5078087;28;20178;-88
2023/05/24 05:45:34;;;;;;;0.50;0.50;;;;;;;;;;5076724;28;20581;-86
2023/05/24 05:48:00;;;;;;;0.53;0.53;;;;;;;;;;5074222;28;20183;-87
2023/05/24 05:50:26;;;;;;;0.47;0.47;;;;;;;;;;5073609;28;20248;-84
2023/05/24 05:52:52;;;;;;;0.47;0.47;;;;;;;;;;5073607;28;20198;-85
2023/05/24 05:55:18;;;;;;;0.40;0.40;;;;;;;;;;5070079;28;20563;-86
2023/05/24 05:57:44;;;;;;;0.50;0.50;;;;;;;;;;5058319;28;20171;-84
2023/05/24 06:00:11;;;;;;;0.30;0.30;;;;;;;;;;5053239;28;20199;-86
2023/05/24 06:02:37;;;;;;;0.40;0.40;;;;;;;;;;5053068;28;20171;-86
2023/05/24 06:05:03;;;;;;;0.50;0.50;;;;;;;;;;5053609;28;20198;-86
2023/05/24 06:07:29;;;;;;;0.40;0.40;;;;;;;;;;5053820;28;20171;-86
2023/05/24 06:09:55;;;;;;;0.40;0.40;;;;;;;;;;5053006;28;20602;-85
2023/05/24 06:12:21;;;;;;;0.50;0.50;;;;;;;;;;5058341;28;20228;-86
2023/05/24 06:14:49;;;;;;;0.50;0.50;;;;;;;;;;5072673;28;20201;-87
2023/05/24 06:17:15;;;;;;;0.40;0.40;;;;;;;;;;5076457;28;20639;-86
2023/05/24 06:19:42;;;;;;;0.40;0.40;;;;;;;;;;5071254;28;20677;-86
2023/05/24 06:22:08;;;;;;;0.50;0.50;;;;;;;;;;5078796;28;20183;-85
2023/05/24 06:24:34;;;;;;;0.40;0.40;;;;;;;;;;5071410;28;20541;-85
2023/05/24 06:27:00;;;;;;;0.40;0.40;;;;;;;;;;5065015;28;20195;-86
2023/05/24 06:29:26;;;;;;;0.50;0.50;;;;;;;;;;5058620;28;20646;-84
2023/05/24 06:31:52;;;;;;;0.50;0.50;;;;;;;;;;5059638;28;20203;-85
2023/05/24 06:34:22;;;;;;;0.40;0.40;;;;;;;;;;5070846;28;20171;-86
2023/05/24 06:36:49;;;;;;;0.40;0.40;;;;;;;;;;5061080;28;20696;-85
2023/05/24 06:39:16;;;;;;;0.40;0.40;;;;;;;;;;5062253;28;20175;-85
2023/05/24 06:41:43;;;;;;;0.40;0.40;;;;;;;;;;5069665;28;20656;-85
2023/05/24 06:44:09;;;;;;;0.40;0.40;;;;;;;;;;5067184;28;20167;-90
2023/05/24 06:46:36;;;;;;;0.30;0.30;;;;;;;;;;5081754;28;20174;-88
2023/05/24 06:49:02;;;;;;;0.40;0.40;;;;;;;;;;5080860;28;20516;-86
2023/05/24 06:51:29;;;;;;;0.40;0.40;;;;;;;;;;5066963;28;20227;-84
2023/05/24 06:53:55;;;;;;;0.47;0.47;;;;;;;;;;5068808;28;20190;-86
2023/05/24 06:56:22;;;;;;;0.40;0.40;;;;;;;;;;5066874;28;20254;-85
2023/05/24 06:58:48;;;;;;;0.30;0.30;;;;;;;;;;5064620;28;20179;-86
2023/05/24 07:01:16;;;;;;;0.47;0.47;;;;;;;;;;5064760;28;20195;-85
2023/05/24 07:03:43;;;;;;;0.50;0.50;;;;;;;;;;5066814;28;20769;-85
2023/05/24 07:06:12;;;;;;;0.40;0.40;;;;;;;;;;5066179;28;20191;-84
2023/05/24 07:08:38;;;;;;;0.40;0.40;;;;;;;;;;5070009;28;20179;-84
2023/05/24 07:11:05;;;;;;;0.40;0.40;;;;;;;;;;5065429;28;20711;-85
2023/05/24 07:13:31;;;;;;;0.30;0.30;;;;;;;;;;5070961;28;20183;-86
2023/05/24 07:15:57;;;;;;;0.40;0.40;;;;;;;;;;5068290;28;20173;-86
2023/05/24 07:18:23;;;;;;;0.40;0.40;;;;;;;;;;5073019;28;20179;-83
2023/05/24 07:20:49;;;;;;;0.33;0.33;;;;;;;;;;5080257;28;20201;-83
2023/05/24 07:23:15;;;;;;;0.53;0.53;;;;;;;;;;5082076;28;20187;-84
2023/05/24 07:25:41;;;;;;;0.50;0.50;;;;;;;;;;5085999;28;20178;-84
2023/05/24 07:28:07;;;;;;;0.40;0.40;;;;;;;;;;5077672;28;20209;-81
2023/05/24 07:30:33;;;;;;;0.40;0.40;;;;;;;;;;5079863;28;20206;-85
2023/05/24 07:33:00;;;;;;;0.43;0.43;;;;;;;;;;5078073;28;20623;-84
2023/05/24 07:35:28;;;;;;;0.40;0.40;;;;;;;;;;5074920;28;20228;-83
2023/05/24 07:37:54;;;;;;;0.40;0.40;;;;;;;;;;5063070;28;20171;-83
2023/05/24 07:40:20;;;;;;;0.40;0.40;;;;;;;;;;5062461;28;20195;-83
2023/05/24 07:42:46;;;;;;;0.47;0.47;;;;;;;;;;5065509;28;20269;-83
2023/05/24 07:45:12;;;;;;;0.50;0.50;;;;;;;;;;5062277;28;20383;-83
2023/05/24 07:47:39;;;;;;;0.43;0.43;;;;;;;;;;5063038;28;20687;-83
2023/05/24 07:50:05;;;;;;;0.40;0.40;;;;;;;;;;5061780;28;20234;-82
2023/05/24 07:52:31;;;;;;;0.43;0.43;;;;;;;;;;5074042;28;20171;-82
2023/05/24 07:54:57;;;;;;;0.53;0.53;;;;;;;;;;5082816;28;20182;-81
2023/05/24 07:57:23;;;;;;;0.33;0.33;;;;;;;;;;5084378;28;20637;-85
2023/05/24 07:59:49;;;;;;;0.40;0.40;;;;;;;;;;5083552;28;20194;-83
2023/05/24 08:02:15;;;;;;;0.40;0.40;;;;;;;;;;5082115;28;20174;-83
2023/05/24 08:04:45;;;;;;;0.50;0.50;;;;;;;;;;5081993;28;20217;-83
2023/05/24 08:07:11;;;;;;;0.43;0.43;;;;;;;;;;5081672;28;20174;-85
2023/05/24 08:09:37;;;;;;;0.40;0.40;;;;;;;;;;5080929;28;20221;-85
2023/05/24 08:12:04;;;;;;;0.40;0.40;;;;;;;;;;5082723;28;20171;-84
2023/05/24 08:14:30;;;;;;;0.40;0.40;;;;;;;;;;5081692;28;20181;-85
2023/05/24 08:16:56;;;;;;;0.50;0.50;;;;;;;;;;5077833;28;20171;-83
2023/05/24 08:19:22;;;;;;;0.40;0.40;;;;;;;;;;5092918;28;20235;-85
2023/05/24 08:21:48;;;;;;;0.50;0.50;;;;;;;;;;5089914;28;20192;-87
2023/05/24 08:24:14;;;;;;;0.40;0.40;;;;;;;;;;5080197;28;20265;-86
2023/05/24 08:26:42;;;;;;;0.50;0.50;;;;;;;;;;5082085;28;20205;-84
2023/05/24 08:29:08;;;;;;;0.40;0.40;;;;;;;;;;5100174;28;20655;-84
2023/05/24 08:31:34;;;;;;;0.50;0.50;;;;;;;;;;5088636;28;20182;-82
2023/05/24 08:34:01;;;;;;;0.40;0.40;;;;;;;;;;5095564;28;20190;-83
2023/05/24 08:36:27;;;;;;;0.40;0.40;;;;;;;;;;5108253;28;20185;-82
2023/05/24 08:38:53;;;;;;;0.50;0.50;;;;;;;;;;5085938;28;20196;-81
2023/05/24 08:41:19;;;;;;;0.50;0.50;;;;;;;;;;5079703;28;20202;-81
2023/05/24 08:43:46;;;;;;;0.47;0.47;;;;;;;;;;5090743;28;20174;-82
2023/05/24 08:46:13;;;;;;;0.50;0.50;;;;;;;;;;5097058;28;20189;-82
2023/05/24 08:48:44;;;;;;;0.50;0.50;;;;;;;;;;5110412;28;20257;-82
2023/05/24 08:51:10;;;;;;;0.40;0.40;;;;;;;;;;5098001;28;20219;-86
2023/05/24 08:53:37;;;;;;;0.40;0.40;;;;;;;;;;5084695;28;20167;-85
2023/05/24 08:56:05;;;;;;;0.60;0.60;;;;;;;;;;5081356;28;20263;-82
2023/05/24 08:58:31;;;;;;;0.30;0.30;;;;;;;;;;5079954;28;20182;-83
2023/05/24 09:00:58;;;;;;;0.40;0.40;;;;;;;;;;5086125;28;20219;-84
2023/05/24 09:03:25;;;;;;;0.40;0.40;;;;;;;;;;5073809;28;20573;-86
2023/05/24 09:05:51;;;;;;;0.50;0.50;;;;;;;;;;5096179;28;20220;-84
2023/05/24 09:08:19;;;;;;;0.40;0.40;;;;;;;;;;5097604;28;20895;-86
2023/05/24 09:10:46;;;;;;;0.40;0.40;;;;;;;;;;5088141;28;20207;-84
2023/05/24 09:13:14;;;;;;;0.37;0.37;;;;;;;;;;5075667;28;20687;-84
2023/05/24 09:15:40;;;;;;;0.30;0.30;;;;;;;;;;5080332;28;20185;-85
2023/05/24 09:18:06;;;;;;;0.50;0.50;;;;;;;;;;5097161;28;20177;-83
2023/05/24 09:20:32;;;;;;;0.40;0.40;;;;;;;;;;5088344;28;20210;-84
2023/05/24 09:22:58;;;;;;;0.43;0.43;;;;;;;;;;5065543;28;20588;-83
2023/05/24 09:25:28;;;;;;;0.57;0.57;;;;;;;;;;5073890;28;20174;-83
2023/05/24 09:27:55;;;;;;;0.40;0.40;;;;;;;;;;5077209;28;20214;-84
2023/05/24 09:30:22;;;;;;;0.37;0.37;;;;;;;;;;5061338;28;20211;-83
2023/05/24 09:32:55;;;;;;;0.40;0.40;;;;;;;;;;5064286;28;20536;-84
2023/05/24 09:35:21;;;;;;;0.60;0.60;;;;;;;;;;5063999;28;20190;-88
2023/05/24 09:37:47;;;;;;;0.47;0.47;;;;;;;;;;5061504;28;20175;-83
2023/05/24 09:40:20;;;;;;;0.50;0.50;;;;;;;;;;5070720;28;20229;-82
2023/05/24 09:42:50;;;;;;;0.33;0.33;;;;;;;;;;5059404;28;20204;-84
2023/05/24 09:45:16;;;;;;;0.40;0.40;;;;;;;;;;5067780;28;20191;-85
2023/05/24 09:47:45;;;;;;;0.40;0.40;;;;;;;;;;5056825;28;20178;-85
2023/05/24 09:50:18;;;;;;;0.60;0.60;;;;;;;;;;5055413;28;20218;-86
2023/05/24 09:52:44;;;;;;;0.40;0.40;;;;;;;;;;5058112;28;20183;-86
2023/05/24 09:55:20;;;;;;;0.40;0.40;;;;;;;;;;5060075;28;20175;-85
2023/05/24 09:58:04;;;;;;;0.40;0.40;;;;;;;;;;5080107;28;20186;-83
2023/05/24 10:00:35;;;;;;;0.40;0.40;;;;;;;;;;5080496;28;20202;-85
2023/05/24 10:03:01;;;;;;;0.40;0.40;;;;;;;;;;5092542;28;20237;-84
2023/05/24 10:05:28;;;;;;;0.35;0.35;;;;;;;;;;5093207;28;20390;-83
2023/05/24 10:07:54;;;;;;;0.40;0.40;;;;;;;;;;5089819;28;20209;-84
2023/05/24 10:10:21;;;;;;;0.40;0.40;;;;;;;;;;5091156;28;20236;-82
2023/05/24 10:12:48;;;;;;;0.40;0.40;;;;;;;;;;5090495;28;20200;-84
2023/05/24 10:15:14;;;;;;;0.50;0.50;;;;;;;;;;5078666;28;20189;-84
2023/05/24 10:17:40;;;;;;;0.50;0.50;;;;;;;;;;5075204;28;20216;-83
2023/05/24 10:20:07;;;;;;;0.40;0.40;;;;;;;;;;5068591;28;20598;-83
2023/05/24 10:22:38;;;;;;;0.40;0.40;;;;;;;;;;5063338;28;20595;-82
2023/05/24 10:25:07;;;;;;;0.40;0.40;;;;;;;;;;5062694;28;20178;-82
2023/05/24 10:27:33;;;;;;;0.50;0.50;;;;;;;;;;5066385;28;20262;-83
2023/05/24 10:30:19;;;;;;;0.40;0.40;;;;;;;;;;5065084;28;20289;-83
2023/05/24 10:32:47;;;;;;;0.40;0.40;;;;;;;;;;5070360;28;20226;-83
2023/05/24 10:35:13;;;;;;;0.40;0.40;;;;;;;;;;5071095;28;20573;-84
2023/05/24 10:37:41;;;;;;;0.40;0.40;;;;;;;;;;5075338;28;20223;-84
2023/05/24 10:40:08;;;;;;;0.40;0.40;;;;;;;;;;5074956;28;20205;-83
2023/05/24 10:42:35;;;;;;;0.40;0.40;;;;;;;;;;5074986;28;20179;-83
2023/05/24 10:45:21;;;;;;;0.40;0.40;;;;;;;;;;5073893;28;20206;-83
2023/05/24 10:47:47;;;;;;;0.40;0.40;;;;;;;;;;5064957;28;20253;-85
2023/05/24 10:50:19;;;;;;;0.40;0.40;;;;;;;;;;5056172;28;20234;-83
2023/05/24 10:52:46;;;;;;;0.50;0.50;;;;;;;;;;5061891;28;20182;-83
2023/05/24 10:55:12;;;;;;;0.40;0.40;;;;;;;;;;5065326;28;20171;-82
2023/05/24 10:57:39;;;;;;;0.33;0.33;;;;;;;;;;5065853;28;20185;-83
2023/05/24 11:00:34;;;;;;;0.40;0.40;;;;;;;;;;5065799;28;20567;-83
2023/05/24 11:03:01;;;;;;;0.33;0.33;;;;;;;;;;5055073;28;20641;-82
2023/05/24 11:05:45;;;;;;;0.40;0.40;;;;;;;;;;5063024;28;20179;-84
2023/05/24 11:08:12;;;;;;;0.50;0.50;;;;;;;;;;5064769;28;20208;-84
2023/05/24 11:10:38;;;;;;;0.50;0.50;;;;;;;;;;5066242;28;20258;-83
2023/05/24 11:13:06;;;;;;;0.53;0.53;;;;;;;;;;5066669;28;20166;-83
2023/05/24 11:15:32;;;;;;;0.47;0.47;;;;;;;;;;5068465;28;20171;-83
2023/05/24 11:18:14;;;;;;;0.40;0.40;;;;;;;;;;5077991;28;20190;-83
2023/05/24 11:20:44;;;;;;;0.50;0.50;;;;;;;;;;5078148;28;20198;-83
2023/05/24 11:23:10;;;;;;;0.40;0.40;;;;;;;;;;5075547;28;20239;-82
2023/05/24 11:25:37;;;;;;;0.40;0.40;;;;;;;;;;5075785;28;20221;-83
2023/05/24 11:28:03;;;;;;;0.30;0.30;;;;;;;;;;5089449;28;20178;-83
2023/05/24 11:30:31;;;;;;;0.40;0.40;;;;;;;;;;5095099;28;20217;-81
2023/05/24 11:32:58;;;;;;;0.40;0.40;;;;;;;;;;5096474;28;20239;-83
2023/05/24 11:35:26;;;;;;;0.50;0.50;;;;;;;;;;5093006;28;20270;-83
2023/05/24 11:37:53;;;;;;;0.53;0.53;;;;;;;;;;5088727;28;20216;-82
2023/05/24 11:40:19;;;;;;;0.40;0.40;;;;;;;;;;5091445;28;20194;-82
2023/05/24 11:42:45;;;;;;;0.40;0.40;;;;;;;;;;5090166;28;20166;-83
2023/05/24 11:45:12;;;;;;;0.40;0.40;;;;;;;;;;5094088;28;20178;-82
2023/05/24 11:47:39;;;;;;;0.40;0.40;;;;;;;;;;5093254;28;20170;-82
2023/05/24 11:50:05;;;;;;;0.60;0.60;;;;;;;;;;5085110;28;20214;-84
2023/05/24 11:52:31;;;;;;;0.40;0.40;;;;;;;;;;5085040;28;20585;-82
2023/05/24 11:54:57;;;;;;;0.50;0.50;;;;;;;;;;5085811;28;20182;-82
2023/05/24 11:57:32;;;;;;;0.33;0.33;;;;;;;;;;5088364;28;20555;-83
2023/05/24 11:59:58;;;;;;;0.40;0.40;;;;;;;;;;5082370;28;20227;-85
2023/05/24 12:02:24;;;;;;;0.50;0.50;;;;;;;;;;5086241;28;20190;-85
2023/05/24 12:04:50;;;;;;;0.40;0.40;;;;;;;;;;5085630;28;20182;-84
2023/05/24 12:07:16;;;;;;;0.40;0.40;;;;;;;;;;5076117;28;20664;-84
2023/05/24 12:09:42;;;;;;;0.30;0.30;;;;;;;;;;5073497;28;20214;-85
2023/05/24 12:12:08;;;;;;;0.40;0.40;;;;;;;;;;5071844;28;20191;-85
2023/05/24 12:14:35;;;;;;;0.40;0.40;;;;;;;;;;5069457;28;20214;-84
2023/05/24 12:17:01;;;;;;;0.40;0.40;;;;;;;;;;5075176;28;20792;-84
2023/05/24 12:19:33;;;;;;;0.40;0.40;;;;;;;;;;5091769;28;20231;-84
2023/05/24 12:21:59;;;;;;;0.40;0.40;;;;;;;;;;5088652;28;20178;-83
2023/05/24 12:24:26;;;;;;;0.40;0.40;;;;;;;;;;5100092;28;20178;-83
2023/05/24 12:26:57;;;;;;;0.40;0.40;;;;;;;;;;5106538;28;20190;-82
2023/05/24 12:29:23;;;;;;;0.40;0.40;;;;;;;;;;5099749;28;20174;-82
2023/05/24 12:31:50;;;;;;;0.40;0.40;;;;;;;;;;5110152;28;20174;-81
2023/05/24 12:34:17;;;;;;;0.30;0.30;;;;;;;;;;5111977;28;20203;-82
2023/05/24 12:36:43;;;;;;;0.30;0.30;;;;;;;;;;5114495;28;20189;-82
2023/05/24 12:39:17;;;;;;;0.30;0.30;;;;;;;;;;5110301;28;20241;-82
2023/05/24 12:41:43;;;;;;;0.30;0.30;;;;;;;;;;5107332;28;20595;-83
2023/05/24 12:44:09;;;;;;;0.40;0.40;;;;;;;;;;5109290;28;20185;-83
2023/05/24 12:46:36;;;;;;;0.30;0.30;;;;;;;;;;5108172;28;20168;-82
2023/05/24 12:49:03;;;;;;;0.30;0.30;;;;;;;;;;5109512;28;20170;-82
2023/05/24 12:51:29;;;;;;;0.40;0.40;;;;;;;;;;5109110;28;20217;-83
2023/05/24 12:53:55;;;;;;;0.40;0.40;;;;;;;;;;5106550;28;20181;-82
2023/05/24 12:56:23;;;;;;;0.40;0.40;;;;;;;;;;5110011;28;20229;-82
2023/05/24 12:58:49;;;;;;;0.30;0.30;;;;;;;;;;5110021;28;20199;-82
2023/05/24 13:01:15;;;;;;;0.40;0.40;;;;;;;;;;5109300;28;20220;-82
2023/05/24 13:03:41;;;;;;;0.30;0.30;;;;;;;;;;5109217;28;20178;-82
2023/05/24 13:06:07;;;;;;;0.40;0.40;;;;;;;;;;5109056;28;20170;-83
2023/05/24 13:08:33;;;;;;;0.50;0.50;;;;;;;;;;5110347;28;20220;-83
2023/05/24 13:10:59;;;;;;;0.40;0.40;;;;;;;;;;5109087;28;20229;-81
2023/05/24 13:13:27;;;;;;;0.30;0.30;;;;;;;;;;5112111;28;20182;-82
2023/05/24 13:15:53;;;;;;;0.33;0.33;;;;;;;;;;5114559;28;20229;-83
2023/05/24 13:18:19;;;;;;;0.40;0.40;;;;;;;;;;5114711;28;20165;-82
2023/05/24 13:20:45;;;;;;;0.40;0.40;;;;;;;;;;5108905;28;20204;-82
2023/05/24 13:23:11;;;;;;;0.30;0.30;;;;;;;;;;5112506;28;20204;-82
2023/05/24 13:25:37;;;;;;;0.30;0.30;;;;;;;;;;5116951;28;20169;-82
2023/05/24 13:28:03;;;;;;;0.40;0.40;;;;;;;;;;5116705;28;20188;-82
2023/05/24 13:30:29;;;;;;;0.30;0.30;;;;;;;;;;5109671;28;20232;-83
2023/05/24 13:32:57;;;;;;;0.30;0.30;;;;;;;;;;5106984;28;20170;-83
2023/05/24 13:35:23;;;;;;;0.30;0.30;;;;;;;;;;5081935;28;20179;-81
2023/05/24 13:37:50;;;;;;;0.30;0.30;;;;;;;;;;5064261;28;20254;-83
2023/05/24 13:40:16;;;;;;;0.30;0.30;;;;;;;;;;5062936;28;20226;-82
2023/05/24 13:42:42;;;;;;;0.30;0.30;;;;;;;;;;5064499;28;20175;-83
2023/05/24 13:45:08;;;;;;;0.30;0.30;;;;;;;;;;5064221;28;20181;-83
2023/05/24 13:47:34;;;;;;;0.40;0.40;;;;;;;;;;5064803;28;20327;-83
2023/05/24 13:50:00;;;;;;;0.40;0.40;;;;;;;;;;5066652;28;20527;-81
2023/05/24 13:52:26;;;;;;;0.40;0.40;;;;;;;;;;5067123;28;20205;-83
2023/05/24 13:54:52;;;;;;;0.30;0.30;;;;;;;;;;5065466;28;20175;-83
2023/05/24 13:57:18;;;;;;;0.30;0.30;;;;;;;;;;5064635;28;20185;-83
2023/05/24 13:59:44;;;;;;;0.40;0.40;;;;;;;;;;5065812;28;20199;-82
2023/05/24 14:02:10;;;;;;;0.30;0.30;;;;;;;;;;5068278;28;20225;-83
2023/05/24 14:04:36;;;;;;;0.40;0.40;;;;;;;;;;5067930;28;20175;-83
2023/05/24 14:07:04;;;;;;;0.40;0.40;;;;;;;;;;5067731;28;20715;-82
2023/05/24 14:09:30;;;;;;;0.30;0.30;;;;;;;;;;5065825;28;20225;-83
2023/05/24 14:11:56;;;;;;;0.40;0.40;;;;;;;;;;5064616;28;20183;-82
2023/05/24 14:14:22;;;;;;;0.40;0.40;;;;;;;;;;5067651;28;20171;-83
2023/05/24 14:16:50;;;;;;;0.30;0.30;;;;;;;;;;5066106;28;20176;-82
2023/05/24 14:19:17;;;;;;;0.40;0.40;;;;;;;;;;5068456;28;20178;-83
2023/05/24 14:21:43;;;;;;;0.30;0.30;;;;;;;;;;5068916;28;20221;-84
2023/05/24 14:24:09;;;;;;;0.40;0.40;;;;;;;;;;5081925;28;20177;-85
2023/05/24 14:26:35;;;;;;;0.30;0.30;;;;;;;;;;5082934;28;20555;-82
2023/05/24 14:29:01;;;;;;;0.30;0.30;;;;;;;;;;5089305;28;20177;-83
2023/05/24 14:31:27;;;;;;;0.37;0.37;;;;;;;;;;5106865;28;20196;-82
2023/05/24 14:33:53;;;;;;;0.30;0.30;;;;;;;;;;5113868;28;20162;-83
2023/05/24 14:36:19;;;;;;;0.30;0.30;;;;;;;;;;5104133;28;20315;-85
2023/05/24 14:38:45;;;;;;;0.33;0.33;;;;;;;;;;5105738;28;20177;-82
2023/05/24 14:41:11;;;;;;;0.40;0.40;;;;;;;;;;5104599;28;20285;-83
2023/05/24 14:43:39;;;;;;;0.50;0.50;;;;;;;;;;5105529;28;20169;-83